sensor_id;sensor_type;location;lat;lon;timestamp;temperature;humidity
66096;SHT31;53861;53.422;14.530;2023-02-03T00:00:24;-0.14;89.85
66096;SHT31;53861;53.422;14.530;2023-02-03T00:02:53;-0.03;89.91
66096;SHT31;53861;53.422;14.530;2023-02-03T00:05:20;-0.02;89.77
66096;SHT31;53861;53.422;14.530;2023-02-03T00:07:48;-0.07;90.07
66096;SHT31;53861;53.422;14.530;2023-02-03T00:10:17;0.03;90.55
66096;SHT31;53861;53.422;14.530;2023-02-03T00:12:46;0.03;89.49
66096;SHT31;53861;53.422;14.530;2023-02-03T00:15:13;-0.03;89.39
66096;SHT31;53861;53.422;14.530;2023-02-03T00:17:40;-0.03;89.55
66096;SHT31;53861;53.422;14.530;2023-02-03T00:20:08;0.04;89.88
66096;SHT31;53861;53.422;14.530;2023-02-03T00:22:36;0.07;90.01
66096;SHT31;53861;53.422;14.530;2023-02-03T00:25:03;0.08;89.78
66096;SHT31;53861;53.422;14.530;2023-02-03T00:27:35;0.08;89.77
66096;SHT31;53861;53.422;14.530;2023-02-03T00:30:03;0.15;89.18
66096;SHT31;53861;53.422;14.530;2023-02-03T00:32:32;0.19;88.79
66096;SHT31;53861;53.422;14.530;2023-02-03T00:34:59;0.13;89.00
66096;SHT31;53861;53.422;14.530;2023-02-03T00:37:26;0.19;89.17
66096;SHT31;53861;53.422;14.530;2023-02-03T00:39:53;0.21;88.64
66096;SHT31;53861;53.422;14.530;2023-02-03T00:42:20;0.28;89.28
66096;SHT31;53861;53.422;14.530;2023-02-03T00:44:49;0.32;89.68
66096;SHT31;53861;53.422;14.530;2023-02-03T00:47:16;0.28;89.03
66096;SHT31;53861;53.422;14.530;2023-02-03T00:49:44;0.32;88.71
66096;SHT31;53861;53.422;14.530;2023-02-03T00:52:11;0.40;88.88
66096;SHT31;53861;53.422;14.530;2023-02-03T00:54:41;0.45;89.68
66096;SHT31;53861;53.422;14.530;2023-02-03T00:57:11;0.49;88.65
66096;SHT31;53861;53.422;14.530;2023-02-03T00:59:38;0.49;87.88
66096;SHT31;53861;53.422;14.530;2023-02-03T01:02:06;0.40;88.75
66096;SHT31;53861;53.422;14.530;2023-02-03T01:04:34;0.40;89.00
66096;SHT31;53861;53.422;14.530;2023-02-03T01:07:01;0.40;88.49
66096;SHT31;53861;53.422;14.530;2023-02-03T01:09:32;0.40;88.95
66096;SHT31;53861;53.422;14.530;2023-02-03T01:11:59;0.40;88.82
66096;SHT31;53861;53.422;14.530;2023-02-03T01:14:26;0.44;88.65
66096;SHT31;53861;53.422;14.530;2023-02-03T01:16:55;0.57;87.94
66096;SHT31;53861;53.422;14.530;2023-02-03T01:19:24;0.49;88.49
66096;SHT31;53861;53.422;14.530;2023-02-03T01:21:51;0.48;89.47
66096;SHT31;53861;53.422;14.530;2023-02-03T01:24:19;0.44;88.73
66096;SHT31;53861;53.422;14.530;2023-02-03T01:26:46;0.44;88.83
66096;SHT31;53861;53.422;14.530;2023-02-03T01:29:16;0.45;87.95
66096;SHT31;53861;53.422;14.530;2023-02-03T01:31:44;0.52;88.07
66096;SHT31;53861;53.422;14.530;2023-02-03T01:34:12;0.48;88.34
66096;SHT31;53861;53.422;14.530;2023-02-03T01:36:42;0.55;87.86
66096;SHT31;53861;53.422;14.530;2023-02-03T01:39:09;0.59;87.51
66096;SHT31;53861;53.422;14.530;2023-02-03T01:41:37;0.58;87.65
66096;SHT31;53861;53.422;14.530;2023-02-03T01:46:47;0.65;87.45
66096;SHT31;53861;53.422;14.530;2023-02-03T01:49:15;0.65;87.16
66096;SHT31;53861;53.422;14.530;2023-02-03T01:51:45;0.73;86.96
66096;SHT31;53861;53.422;14.530;2023-02-03T01:54:14;0.73;87.32
66096;SHT31;53861;53.422;14.530;2023-02-03T01:56:44;0.75;87.53
66096;SHT31;53861;53.422;14.530;2023-02-03T01:59:13;0.78;87.02
66096;SHT31;53861;53.422;14.530;2023-02-03T02:01:45;0.78;87.56
66096;SHT31;53861;53.422;14.530;2023-02-03T02:04:12;0.89;87.12
66096;SHT31;53861;53.422;14.530;2023-02-03T02:06:39;0.99;89.35
66096;SHT31;53861;53.422;14.530;2023-02-03T02:09:07;0.99;87.61
66096;SHT31;53861;53.422;14.530;2023-02-03T02:11:38;0.93;87.88
66096;SHT31;53861;53.422;14.530;2023-02-03T02:14:05;0.89;88.63
66096;SHT31;53861;53.422;14.530;2023-02-03T02:16:35;0.90;87.89
66096;SHT31;53861;53.422;14.530;2023-02-03T02:19:13;0.95;87.52
66096;SHT31;53861;53.422;14.530;2023-02-03T02:21:55;0.83;88.16
66096;SHT31;53861;53.422;14.530;2023-02-03T02:24:31;0.90;89.14
66096;SHT31;53861;53.422;14.530;2023-02-03T02:27:04;0.93;88.82
66096;SHT31;53861;53.422;14.530;2023-02-03T02:32:21;0.93;88.93
66096;SHT31;53861;53.422;14.530;2023-02-03T02:34:55;1.02;89.29
66096;SHT31;53861;53.422;14.530;2023-02-03T02:37:25;0.97;89.15
66096;SHT31;53861;53.422;14.530;2023-02-03T02:39:56;0.93;89.62
66096;SHT31;53861;53.422;14.530;2023-02-03T02:42:26;0.99;90.16
66096;SHT31;53861;53.422;14.530;2023-02-03T02:44:58;1.03;89.72
66096;SHT31;53861;53.422;14.530;2023-02-03T02:47:30;1.03;89.70
66096;SHT31;53861;53.422;14.530;2023-02-03T02:49:58;1.03;90.45
66096;SHT31;53861;53.422;14.530;2023-02-03T02:52:26;1.02;90.84
66096;SHT31;53861;53.422;14.530;2023-02-03T02:54:57;1.07;90.78
66096;SHT31;53861;53.422;14.530;2023-02-03T02:57:26;1.04;91.40
66096;SHT31;53861;53.422;14.530;2023-02-03T02:59:54;1.00;91.90
66096;SHT31;53861;53.422;14.530;2023-02-03T03:02:30;1.10;91.87
66096;SHT31;53861;53.422;14.530;2023-02-03T03:04:59;0.99;92.50
66096;SHT31;53861;53.422;14.530;2023-02-03T03:07:26;1.02;92.51
66096;SHT31;53861;53.422;14.530;2023-02-03T03:09:58;1.00;92.94
66096;SHT31;53861;53.422;14.530;2023-02-03T03:12:27;0.99;93.12
66096;SHT31;53861;53.422;14.530;2023-02-03T03:14:56;1.07;92.91
66096;SHT31;53861;53.422;14.530;2023-02-03T03:17:26;1.09;92.83
66096;SHT31;53861;53.422;14.530;2023-02-03T03:19:55;1.04;93.09
66096;SHT31;53861;53.422;14.530;2023-02-03T03:22:26;1.04;93.33
66096;SHT31;53861;53.422;14.530;2023-02-03T03:24:57;0.97;93.66
66096;SHT31;53861;53.422;14.530;2023-02-03T03:27:28;0.95;93.71
66096;SHT31;53861;53.422;14.530;2023-02-03T03:29:56;0.96;93.94
66096;SHT31;53861;53.422;14.530;2023-02-03T03:32:27;1.10;93.66
66096;SHT31;53861;53.422;14.530;2023-02-03T03:34:55;1.17;93.56
66096;SHT31;53861;53.422;14.530;2023-02-03T03:37:23;1.22;93.26
66096;SHT31;53861;53.422;14.530;2023-02-03T03:39:56;1.16;93.44
66096;SHT31;53861;53.422;14.530;2023-02-03T03:42:24;1.15;93.60
66096;SHT31;53861;53.422;14.530;2023-02-03T03:44:53;1.16;93.41
66096;SHT31;53861;53.422;14.530;2023-02-03T03:47:26;1.16;93.79
66096;SHT31;53861;53.422;14.530;2023-02-03T03:49:55;1.16;93.56
66096;SHT31;53861;53.422;14.530;2023-02-03T03:52:24;1.17;93.59
66096;SHT31;53861;53.422;14.530;2023-02-03T03:54:54;1.22;93.69
66096;SHT31;53861;53.422;14.530;2023-02-03T03:57:23;1.23;93.28
66096;SHT31;53861;53.422;14.530;2023-02-03T03:59:51;1.17;93.29
66096;SHT31;53861;53.422;14.530;2023-02-03T04:02:20;1.07;93.43
66096;SHT31;53861;53.422;14.530;2023-02-03T04:04:47;1.13;94.07
66096;SHT31;53861;53.422;14.530;2023-02-03T04:07:14;1.15;93.93
66096;SHT31;53861;53.422;14.530;2023-02-03T04:09:41;1.15;93.83
66096;SHT31;53861;53.422;14.530;2023-02-03T04:12:15;1.15;93.94
66096;SHT31;53861;53.422;14.530;2023-02-03T04:14:46;1.24;93.67
66096;SHT31;53861;53.422;14.530;2023-02-03T04:17:13;1.15;93.78
66096;SHT31;53861;53.422;14.530;2023-02-03T04:19:40;1.19;93.97
66096;SHT31;53861;53.422;14.530;2023-02-03T04:22:07;1.22;93.97
66096;SHT31;53861;53.422;14.530;2023-02-03T04:24:35;1.22;93.87
66096;SHT31;53861;53.422;14.530;2023-02-03T04:27:02;1.20;93.78
66096;SHT31;53861;53.422;14.530;2023-02-03T04:29:33;1.20;94.02
66096;SHT31;53861;53.422;14.530;2023-02-03T04:32:00;1.09;93.96
66096;SHT31;53861;53.422;14.530;2023-02-03T04:34:27;1.22;93.93
66096;SHT31;53861;53.422;14.530;2023-02-03T04:36:54;1.10;93.86
66096;SHT31;53861;53.422;14.530;2023-02-03T04:39:21;1.17;93.93
66096;SHT31;53861;53.422;14.530;2023-02-03T04:41:49;1.16;94.11
66096;SHT31;53861;53.422;14.530;2023-02-03T04:44:16;1.10;94.23
66096;SHT31;53861;53.422;14.530;2023-02-03T04:46:45;1.04;94.43
66096;SHT31;53861;53.422;14.530;2023-02-03T04:49:12;1.04;94.41
66096;SHT31;53861;53.422;14.530;2023-02-03T04:51:39;1.09;94.36
66096;SHT31;53861;53.422;14.530;2023-02-03T04:54:09;1.12;94.69
66096;SHT31;53861;53.422;14.530;2023-02-03T04:56:36;1.07;94.27
66096;SHT31;53861;53.422;14.530;2023-02-03T04:59:03;0.97;94.77
66096;SHT31;53861;53.422;14.530;2023-02-03T05:01:31;1.07;94.61
66096;SHT31;53861;53.422;14.530;2023-02-03T05:04:03;1.16;94.23
66096;SHT31;53861;53.422;14.530;2023-02-03T05:06:30;1.07;94.75
66096;SHT31;53861;53.422;14.530;2023-02-03T05:08:57;1.04;94.54
66096;SHT31;53861;53.422;14.530;2023-02-03T05:11:25;1.07;94.70
66096;SHT31;53861;53.422;14.530;2023-02-03T05:13:52;1.07;94.67
66096;SHT31;53861;53.422;14.530;2023-02-03T05:16:22;1.07;94.62
66096;SHT31;53861;53.422;14.530;2023-02-03T05:18:49;1.13;94.83
66096;SHT31;53861;53.422;14.530;2023-02-03T05:21:18;1.02;94.61
66096;SHT31;53861;53.422;14.530;2023-02-03T05:23:46;1.17;94.62
66096;SHT31;53861;53.422;14.530;2023-02-03T05:26:13;1.10;94.61
66096;SHT31;53861;53.422;14.530;2023-02-03T05:28:40;1.19;94.53
66096;SHT31;53861;53.422;14.530;2023-02-03T05:31:07;1.16;94.80
66096;SHT31;53861;53.422;14.530;2023-02-03T05:33:34;1.17;94.71
66096;SHT31;53861;53.422;14.530;2023-02-03T05:36:02;1.22;94.54
66096;SHT31;53861;53.422;14.530;2023-02-03T05:38:31;1.19;94.58
66096;SHT31;53861;53.422;14.530;2023-02-03T05:40:58;1.15;94.74
66096;SHT31;53861;53.422;14.530;2023-02-03T05:43:42;1.16;94.92
66096;SHT31;53861;53.422;14.530;2023-02-03T05:46:10;1.22;95.08
66096;SHT31;53861;53.422;14.530;2023-02-03T05:48:37;1.23;95.08
66096;SHT31;53861;53.422;14.530;2023-02-03T05:51:05;1.22;95.09
66096;SHT31;53861;53.422;14.530;2023-02-03T05:53:34;1.26;94.99
66096;SHT31;53861;53.422;14.530;2023-02-03T05:56:01;1.26;95.09
66096;SHT31;53861;53.422;14.530;2023-02-03T05:58:28;1.37;95.05
66096;SHT31;53861;53.422;14.530;2023-02-03T06:00:55;1.29;95.28
66096;SHT31;53861;53.422;14.530;2023-02-03T06:03:23;1.24;95.25
66096;SHT31;53861;53.422;14.530;2023-02-03T06:05:50;1.33;95.59
66096;SHT31;53861;53.422;14.530;2023-02-03T06:08:17;1.36;95.48
66096;SHT31;53861;53.422;14.530;2023-02-03T06:10:45;1.39;95.39
66096;SHT31;53861;53.422;14.530;2023-02-03T06:13:14;1.39;95.73
66096;SHT31;53861;53.422;14.530;2023-02-03T06:15:41;1.41;95.80
66096;SHT31;53861;53.422;14.530;2023-02-03T06:18:08;1.39;95.89
66096;SHT31;53861;53.422;14.530;2023-02-03T06:20:36;1.37;95.99
66096;SHT31;53861;53.422;14.530;2023-02-03T06:23:03;1.37;96.13
66096;SHT31;53861;53.422;14.530;2023-02-03T06:25:32;1.44;95.94
66096;SHT31;53861;53.422;14.530;2023-02-03T06:28:01;1.50;96.23
66096;SHT31;53861;53.422;14.530;2023-02-03T06:30:28;1.54;95.75
66096;SHT31;53861;53.422;14.530;2023-02-03T06:32:57;1.54;95.82
66096;SHT31;53861;53.422;14.530;2023-02-03T06:35:25;1.47;96.00
66096;SHT31;53861;53.422;14.530;2023-02-03T06:37:52;1.50;96.31
66096;SHT31;53861;53.422;14.530;2023-02-03T06:40:19;1.58;96.02
66096;SHT31;53861;53.422;14.530;2023-02-03T06:42:46;1.48;96.37
66096;SHT31;53861;53.422;14.530;2023-02-03T06:45:14;1.55;96.57
66096;SHT31;53861;53.422;14.530;2023-02-03T06:47:42;1.61;96.51
66096;SHT31;53861;53.422;14.530;2023-02-03T06:50:09;1.73;96.25
66096;SHT31;53861;53.422;14.530;2023-02-03T06:52:37;1.71;96.20
66096;SHT31;53861;53.422;14.530;2023-02-03T06:55:04;1.74;96.34
66096;SHT31;53861;53.422;14.530;2023-02-03T06:57:31;1.74;96.38
66096;SHT31;53861;53.422;14.530;2023-02-03T06:59:58;1.74;96.50
66096;SHT31;53861;53.422;14.530;2023-02-03T07:02:27;1.71;96.56
66096;SHT31;53861;53.422;14.530;2023-02-03T07:04:54;1.82;96.60
66096;SHT31;53861;53.422;14.530;2023-02-03T07:07:21;1.86;96.62
66096;SHT31;53861;53.422;14.530;2023-02-03T07:09:48;1.86;96.45
66096;SHT31;53861;53.422;14.530;2023-02-03T07:12:15;1.88;96.56
66096;SHT31;53861;53.422;14.530;2023-02-03T07:14:42;1.95;96.57
66096;SHT31;53861;53.422;14.530;2023-02-03T07:17:09;1.89;96.36
66096;SHT31;53861;53.422;14.530;2023-02-03T07:19:37;1.94;96.57
66096;SHT31;53861;53.422;14.530;2023-02-03T07:22:04;1.99;96.68
66096;SHT31;53861;53.422;14.530;2023-02-03T07:24:31;1.98;96.86
66096;SHT31;53861;53.422;14.530;2023-02-03T07:26:58;2.08;96.88
66096;SHT31;53861;53.422;14.530;2023-02-03T07:29:25;2.11;97.08
66096;SHT31;53861;53.422;14.530;2023-02-03T07:31:52;2.19;97.15
66096;SHT31;53861;53.422;14.530;2023-02-03T07:34:19;2.25;97.11
66096;SHT31;53861;53.422;14.530;2023-02-03T07:36:47;2.35;97.06
66096;SHT31;53861;53.422;14.530;2023-02-03T07:39:14;2.45;97.08
66096;SHT31;53861;53.422;14.530;2023-02-03T07:41:41;2.50;97.10
66096;SHT31;53861;53.422;14.530;2023-02-03T07:44:13;2.57;97.20
66096;SHT31;53861;53.422;14.530;2023-02-03T07:46:40;2.72;97.31
66096;SHT31;53861;53.422;14.530;2023-02-03T07:49:10;2.79;97.30
66096;SHT31;53861;53.422;14.530;2023-02-03T07:51:37;2.86;97.28
66096;SHT31;53861;53.422;14.530;2023-02-03T07:54:05;2.94;97.39
66096;SHT31;53861;53.422;14.530;2023-02-03T07:56:32;3.01;97.28
66096;SHT31;53861;53.422;14.530;2023-02-03T07:58:59;3.12;97.28
66096;SHT31;53861;53.422;14.530;2023-02-03T08:01:26;3.18;97.47
66096;SHT31;53861;53.422;14.530;2023-02-03T08:03:54;3.27;97.53
66096;SHT31;53861;53.422;14.530;2023-02-03T08:06:21;3.29;97.52
66096;SHT31;53861;53.422;14.530;2023-02-03T08:08:48;3.35;97.56
66096;SHT31;53861;53.422;14.530;2023-02-03T08:11:16;3.52;97.65
66096;SHT31;53861;53.422;14.530;2023-02-03T08:13:43;3.61;97.65
66096;SHT31;53861;53.422;14.530;2023-02-03T08:16:10;3.72;97.69
66096;SHT31;53861;53.422;14.530;2023-02-03T08:18:37;3.83;97.71
66096;SHT31;53861;53.422;14.530;2023-02-03T08:21:04;3.92;97.86
66096;SHT31;53861;53.422;14.530;2023-02-03T08:23:31;4.06;97.79
66096;SHT31;53861;53.422;14.530;2023-02-03T08:25:58;4.14;97.77
66096;SHT31;53861;53.422;14.530;2023-02-03T08:28:27;4.25;97.67
66096;SHT31;53861;53.422;14.530;2023-02-03T08:30:54;4.36;97.64
66096;SHT31;53861;53.422;14.530;2023-02-03T08:33:22;4.44;97.61
66096;SHT31;53861;53.422;14.530;2023-02-03T08:35:49;4.51;97.49
66096;SHT31;53861;53.422;14.530;2023-02-03T08:38:16;4.55;97.68
66096;SHT31;53861;53.422;14.530;2023-02-03T08:40:43;4.69;97.68
66096;SHT31;53861;53.422;14.530;2023-02-03T08:43:10;4.67;97.57
66096;SHT31;53861;53.422;14.530;2023-02-03T08:45:39;4.78;97.63
66096;SHT31;53861;53.422;14.530;2023-02-03T08:48:06;4.84;97.68
66096;SHT31;53861;53.422;14.530;2023-02-03T08:50:33;4.96;97.66
66096;SHT31;53861;53.422;14.530;2023-02-03T08:53:00;5.08;97.71
66096;SHT31;53861;53.422;14.530;2023-02-03T08:55:27;5.13;97.75
66096;SHT31;53861;53.422;14.530;2023-02-03T08:57:54;5.18;97.62
66096;SHT31;53861;53.422;14.530;2023-02-03T09:00:21;5.13;97.60
66096;SHT31;53861;53.422;14.530;2023-02-03T09:02:50;5.23;97.70
66096;SHT31;53861;53.422;14.530;2023-02-03T09:05:17;5.35;97.73
66096;SHT31;53861;53.422;14.530;2023-02-03T09:07:44;5.37;97.61
66096;SHT31;53861;53.422;14.530;2023-02-03T09:10:11;5.43;97.43
66096;SHT31;53861;53.422;14.530;2023-02-03T09:12:38;5.40;97.36
66096;SHT31;53861;53.422;14.530;2023-02-03T09:15:05;5.50;97.47
66096;SHT31;53861;53.422;14.530;2023-02-03T09:17:32;5.51;97.42
66096;SHT31;53861;53.422;14.530;2023-02-03T09:20:00;5.51;97.37
66096;SHT31;53861;53.422;14.530;2023-02-03T09:22:27;5.59;97.52
66096;SHT31;53861;53.422;14.530;2023-02-03T09:24:54;5.66;97.52
66096;SHT31;53861;53.422;14.530;2023-02-03T09:27:21;5.67;97.42
66096;SHT31;53861;53.422;14.530;2023-02-03T09:29:48;5.70;97.38
66096;SHT31;53861;53.422;14.530;2023-02-03T09:32:15;5.75;97.46
66096;SHT31;53861;53.422;14.530;2023-02-03T09:34:42;5.87;97.42
66096;SHT31;53861;53.422;14.530;2023-02-03T09:37:11;5.94;97.26
66096;SHT31;53861;53.422;14.530;2023-02-03T09:39:38;5.95;97.25
66096;SHT31;53861;53.422;14.530;2023-02-03T09:42:11;6.02;97.17
66096;SHT31;53861;53.422;14.530;2023-02-03T09:44:42;6.00;97.05
66096;SHT31;53861;53.422;14.530;2023-02-03T09:47:11;6.04;97.10
66096;SHT31;53861;53.422;14.530;2023-02-03T09:49:40;6.12;97.22
66096;SHT31;53861;53.422;14.530;2023-02-03T09:52:09;6.18;97.11
66096;SHT31;53861;53.422;14.530;2023-02-03T09:54:41;6.31;97.08
66096;SHT31;53861;53.422;14.530;2023-02-03T09:57:12;6.41;96.81
66096;SHT31;53861;53.422;14.530;2023-02-03T09:59:40;6.38;96.66
66096;SHT31;53861;53.422;14.530;2023-02-03T10:02:13;6.43;96.71
66096;SHT31;53861;53.422;14.530;2023-02-03T10:04:48;6.52;96.58
66096;SHT31;53861;53.422;14.530;2023-02-03T10:07:19;6.52;96.59
66096;SHT31;53861;53.422;14.530;2023-02-03T10:09:53;6.57;96.33
66096;SHT31;53861;53.422;14.530;2023-02-03T10:15:16;6.71;95.87
66096;SHT31;53861;53.422;14.530;2023-02-03T10:17:45;6.69;95.57
66096;SHT31;53861;53.422;14.530;2023-02-03T10:20:14;6.66;94.43
66096;SHT31;53861;53.422;14.530;2023-02-03T10:22:44;6.69;94.61
66096;SHT31;53861;53.422;14.530;2023-02-03T10:25:17;6.68;93.41
66096;SHT31;53861;53.422;14.530;2023-02-03T10:27:45;6.72;93.09
66096;SHT31;53861;53.422;14.530;2023-02-03T10:30:16;6.68;93.52
66096;SHT31;53861;53.422;14.530;2023-02-03T10:32:44;6.65;93.53
66096;SHT31;53861;53.422;14.530;2023-02-03T10:35:11;6.66;93.96
66096;SHT31;53861;53.422;14.530;2023-02-03T10:37:40;6.68;93.67
66096;SHT31;53861;53.422;14.530;2023-02-03T10:40:10;6.75;93.73
66096;SHT31;53861;53.422;14.530;2023-02-03T10:42:40;6.82;93.25
66096;SHT31;53861;53.422;14.530;2023-02-03T10:45:25;6.76;93.60
66096;SHT31;53861;53.422;14.530;2023-02-03T10:47:53;6.84;93.82
66096;SHT31;53861;53.422;14.530;2023-02-03T10:50:21;6.80;92.38
66096;SHT31;53861;53.422;14.530;2023-02-03T10:52:49;6.83;92.39
66096;SHT31;53861;53.422;14.530;2023-02-03T10:55:28;6.87;91.80
66096;SHT31;53861;53.422;14.530;2023-02-03T10:57:57;6.96;91.53
66096;SHT31;53861;53.422;14.530;2023-02-03T11:00:31;8.40;89.89
66096;SHT31;53861;53.422;14.530;2023-02-03T11:03:07;9.87;84.88
66096;SHT31;53861;53.422;14.530;2023-02-03T11:05:34;9.01;84.96
66096;SHT31;53861;53.422;14.530;2023-02-03T11:08:01;8.88;85.59
66096;SHT31;53861;53.422;14.530;2023-02-03T11:10:30;8.64;86.32
66096;SHT31;53861;53.422;14.530;2023-02-03T11:13:16;8.87;86.15
66096;SHT31;53861;53.422;14.530;2023-02-03T11:15:44;8.74;85.70
66096;SHT31;53861;53.422;14.530;2023-02-03T11:20:58;8.46;84.17
66096;SHT31;53861;53.422;14.530;2023-02-03T11:23:28;8.23;84.93
66096;SHT31;53861;53.422;14.530;2023-02-03T11:25:55;8.02;85.48
66096;SHT31;53861;53.422;14.530;2023-02-03T11:28:23;7.88;85.87
66096;SHT31;53861;53.422;14.530;2023-02-03T11:30:53;7.82;86.32
66096;SHT31;53861;53.422;14.530;2023-02-03T11:33:21;7.74;84.94
66096;SHT31;53861;53.422;14.530;2023-02-03T11:35:53;7.61;85.31
66096;SHT31;53861;53.422;14.530;2023-02-03T11:38:28;7.57;85.09
66096;SHT31;53861;53.422;14.530;2023-02-03T11:40:57;7.48;84.86
66096;SHT31;53861;53.422;14.530;2023-02-03T11:43:26;7.41;85.61
66096;SHT31;53861;53.422;14.530;2023-02-03T11:45:54;7.28;86.26
66096;SHT31;53861;53.422;14.530;2023-02-03T11:48:26;7.37;85.66
66096;SHT31;53861;53.422;14.530;2023-02-03T11:50:56;7.47;84.86
66096;SHT31;53861;53.422;14.530;2023-02-03T11:53:28;7.50;83.74
66096;SHT31;53861;53.422;14.530;2023-02-03T11:56:03;7.45;83.77
66096;SHT31;53861;53.422;14.530;2023-02-03T11:58:46;7.38;84.12
66096;SHT31;53861;53.422;14.530;2023-02-03T12:01:21;7.57;83.52
66096;SHT31;53861;53.422;14.530;2023-02-03T12:03:55;7.59;82.86
66096;SHT31;53861;53.422;14.530;2023-02-03T12:06:28;7.71;81.84
66096;SHT31;53861;53.422;14.530;2023-02-03T12:09:06;7.65;82.20
66096;SHT31;53861;53.422;14.530;2023-02-03T12:11:39;7.72;80.93
66096;SHT31;53861;53.422;14.530;2023-02-03T12:14:16;7.83;80.84
66096;SHT31;53861;53.422;14.530;2023-02-03T12:16:57;8.02;80.17
66096;SHT31;53861;53.422;14.530;2023-02-03T12:19:27;8.20;78.80
66096;SHT31;53861;53.422;14.530;2023-02-03T12:22:03;8.70;78.25
66096;SHT31;53861;53.422;14.530;2023-02-03T12:24:36;9.18;77.64
66096;SHT31;53861;53.422;14.530;2023-02-03T12:27:13;9.32;75.77
66096;SHT31;53861;53.422;14.530;2023-02-03T12:29:46;9.56;75.17
66096;SHT31;53861;53.422;14.530;2023-02-03T12:32:18;9.05;75.95
66096;SHT31;53861;53.422;14.530;2023-02-03T12:34:47;8.74;76.82
66096;SHT31;53861;53.422;14.530;2023-02-03T12:37:16;8.50;76.55
66096;SHT31;53861;53.422;14.530;2023-02-03T12:39:45;8.30;77.06
66096;SHT31;53861;53.422;14.530;2023-02-03T12:42:16;8.17;78.03
66096;SHT31;53861;53.422;14.530;2023-02-03T12:44:46;7.96;78.65
66096;SHT31;53861;53.422;14.530;2023-02-03T12:47:16;7.92;78.59
66096;SHT31;53861;53.422;14.530;2023-02-03T12:49:47;8.03;78.19
66096;SHT31;53861;53.422;14.530;2023-02-03T12:52:19;8.10;77.70
66096;SHT31;53861;53.422;14.530;2023-02-03T12:54:48;8.20;77.81
66096;SHT31;53861;53.422;14.530;2023-02-03T12:57:19;8.09;78.19
66096;SHT31;53861;53.422;14.530;2023-02-03T12:59:53;8.03;79.02
66096;SHT31;53861;53.422;14.530;2023-02-03T13:02:23;8.02;78.29
66096;SHT31;53861;53.422;14.530;2023-02-03T13:04:52;8.14;79.03
66096;SHT31;53861;53.422;14.530;2023-02-03T13:07:22;8.47;77.57
66096;SHT31;53861;53.422;14.530;2023-02-03T13:09:53;8.34;78.20
66096;SHT31;53861;53.422;14.530;2023-02-03T13:12:24;8.00;78.93
66096;SHT31;53861;53.422;14.530;2023-02-03T13:14:56;7.61;81.28
66096;SHT31;53861;53.422;14.530;2023-02-03T13:17:25;7.47;81.37
66096;SHT31;53861;53.422;14.530;2023-02-03T13:19:54;7.40;81.75
66096;SHT31;53861;53.422;14.530;2023-02-03T13:22:21;7.24;82.09
66096;SHT31;53861;53.422;14.530;2023-02-03T13:24:50;7.10;83.90
66096;SHT31;53861;53.422;14.530;2023-02-03T13:27:29;7.03;83.25
66096;SHT31;53861;53.422;14.530;2023-02-03T13:30:07;7.03;83.60
66096;SHT31;53861;53.422;14.530;2023-02-03T13:32:43;7.00;84.30
66096;SHT31;53861;53.422;14.530;2023-02-03T13:35:20;6.90;84.49
66096;SHT31;53861;53.422;14.530;2023-02-03T13:37:57;6.90;83.94
66096;SHT31;53861;53.422;14.530;2023-02-03T13:40:32;6.84;84.29
66096;SHT31;53861;53.422;14.530;2023-02-03T13:43:01;6.89;83.81
66096;SHT31;53861;53.422;14.530;2023-02-03T13:45:32;7.01;82.87
66096;SHT31;53861;53.422;14.530;2023-02-03T13:48:01;6.97;83.80
66096;SHT31;53861;53.422;14.530;2023-02-03T13:50:33;7.07;82.48
66096;SHT31;53861;53.422;14.530;2023-02-03T13:53:01;7.20;82.33
66096;SHT31;53861;53.422;14.530;2023-02-03T13:55:33;7.21;82.03
66096;SHT31;53861;53.422;14.530;2023-02-03T13:58:01;7.20;82.96
66096;SHT31;53861;53.422;14.530;2023-02-03T14:03:16;7.18;81.84
66096;SHT31;53861;53.422;14.530;2023-02-03T14:05:44;7.23;81.55
66096;SHT31;53861;53.422;14.530;2023-02-03T14:13:50;7.14;82.83
66096;SHT31;53861;53.422;14.530;2023-02-03T14:16:21;6.90;84.94
66096;SHT31;53861;53.422;14.530;2023-02-03T14:18:50;6.92;83.79
66096;SHT31;53861;53.422;14.530;2023-02-03T14:21:18;6.82;84.43
66096;SHT31;53861;53.422;14.530;2023-02-03T14:23:48;6.82;84.31
66096;SHT31;53861;53.422;14.530;2023-02-03T14:26:17;6.76;84.84
66096;SHT31;53861;53.422;14.530;2023-02-03T14:28:45;6.68;85.49
66096;SHT31;53861;53.422;14.530;2023-02-03T14:31:13;6.63;86.04
66096;SHT31;53861;53.422;14.530;2023-02-03T14:34:03;6.61;86.25
66096;SHT31;53861;53.422;14.530;2023-02-03T14:36:33;6.61;86.12
66096;SHT31;53861;53.422;14.530;2023-02-03T14:39:01;6.53;87.02
66096;SHT31;53861;53.422;14.530;2023-02-03T14:41:58;6.49;87.25
66096;SHT31;53861;53.422;14.530;2023-02-03T14:44:29;6.48;86.96
66096;SHT31;53861;53.422;14.530;2023-02-03T14:47:02;6.41;86.85
66096;SHT31;53861;53.422;14.530;2023-02-03T14:49:40;6.39;86.87
66096;SHT31;53861;53.422;14.530;2023-02-03T14:52:18;6.41;87.39
66096;SHT31;53861;53.422;14.530;2023-02-03T14:54:53;6.39;87.47
66096;SHT31;53861;53.422;14.530;2023-02-03T14:57:28;6.39;87.01
66096;SHT31;53861;53.422;14.530;2023-02-03T14:59:57;6.41;87.43
66096;SHT31;53861;53.422;14.530;2023-02-03T15:02:25;6.38;87.69
66096;SHT31;53861;53.422;14.530;2023-02-03T15:05:32;6.29;88.04
66096;SHT31;53861;53.422;14.530;2023-02-03T15:07:51;6.33;88.22
66096;SHT31;53861;53.422;14.530;2023-02-03T15:10:20;6.24;89.22
66096;SHT31;53861;53.422;14.530;2023-02-03T15:12:48;6.26;88.79
66096;SHT31;53861;53.422;14.530;2023-02-03T15:15:18;6.26;88.56
66096;SHT31;53861;53.422;14.530;2023-02-03T15:17:46;6.41;87.80
66096;SHT31;53861;53.422;14.530;2023-02-03T15:22:59;6.39;87.74
66096;SHT31;53861;53.422;14.530;2023-02-03T15:25:27;6.35;88.19
66096;SHT31;53861;53.422;14.530;2023-02-03T15:28:08;6.38;87.96
66096;SHT31;53861;53.422;14.530;2023-02-03T15:30:35;6.42;87.62
66096;SHT31;53861;53.422;14.530;2023-02-03T15:33:04;6.42;87.88
66096;SHT31;53861;53.422;14.530;2023-02-03T15:35:32;6.48;87.32
66096;SHT31;53861;53.422;14.530;2023-02-03T15:38:02;6.48;87.54
66096;SHT31;53861;53.422;14.530;2023-02-03T15:40:33;6.53;87.35
66096;SHT31;53861;53.422;14.530;2023-02-03T15:43:03;6.50;87.54
66096;SHT31;53861;53.422;14.530;2023-02-03T15:45:37;6.50;87.82
66096;SHT31;53861;53.422;14.530;2023-02-03T15:48:11;6.56;86.90
66096;SHT31;53861;53.422;14.530;2023-02-03T15:50:40;6.49;87.41
66096;SHT31;53861;53.422;14.530;2023-02-03T15:53:14;6.50;86.86
66096;SHT31;53861;53.422;14.530;2023-02-03T15:55:43;6.55;86.54
66096;SHT31;53861;53.422;14.530;2023-02-03T15:58:14;6.49;87.42
66096;SHT31;53861;53.422;14.530;2023-02-03T16:00:42;6.52;87.21
66096;SHT31;53861;53.422;14.530;2023-02-03T16:03:15;6.49;87.34
66096;SHT31;53861;53.422;14.530;2023-02-03T16:05:46;6.53;86.76